createdAt,value
2019-06-01T00:03:06.055Z,15.35
2019-06-01T00:09:35.767Z,15.31
2019-06-01T00:19:39.935Z,15.18
2019-06-01T00:25:57.564Z,14.93
2019-06-01T00:32:15.421Z,14.91
2019-06-01T00:38:36.510Z,14.87
2019-06-01T00:45:09.597Z,14.75
2019-06-01T00:51:30.312Z,14.73
2019-06-01T00:57:49.714Z,14.61
2019-06-01T01:04:08.222Z,14.57
2019-06-01T01:10:38.739Z,14.52
2019-06-01T01:20:43.041Z,14.35
2019-06-01T01:27:00.531Z,14.39
2019-06-01T01:33:18.613Z,14.33
2019-06-01T01:39:36.527Z,14.25
2019-06-01T01:46:06.650Z,14.05
2019-06-01T01:52:26.398Z,14.02
2019-06-01T01:58:44.263Z,13.98
2019-06-01T02:05:13.872Z,13.88
2019-06-01T02:11:30.796Z,13.91
2019-06-01T02:21:35.770Z,13.83
2019-06-01T02:27:55.622Z,13.71
2019-06-01T02:34:13.486Z,13.58
2019-06-01T02:40:42.932Z,13.61
2019-06-01T02:47:01.547Z,13.64
2019-06-01T02:53:19.232Z,13.56
2019-06-01T02:59:36.660Z,13.55
2019-06-01T03:06:08.622Z,13.35
2019-06-01T03:12:27.883Z,13.43
2019-06-01T03:22:33.449Z,13.40
2019-06-01T03:28:53.700Z,13.37
2019-06-01T03:35:13.162Z,13.27
2019-06-01T03:41:45.693Z,13.15
2019-06-01T03:48:04.634Z,13.02
2019-06-01T03:54:22.131Z,12.94
2019-06-01T04:00:39.813Z,12.89
2019-06-01T04:07:10.737Z,12.76
2019-06-01T04:13:28.827Z,12.87
2019-06-01T04:23:31.950Z,13.01
2019-06-01T04:29:50.759Z,13.00
2019-06-01T04:36:07.494Z,13.02
2019-06-01T04:42:37.833Z,13.16
2019-06-01T04:48:57.408Z,13.29
2019-06-01T04:55:15.728Z,13.38
2019-06-01T05:01:33.691Z,13.38
2019-06-01T05:08:05.184Z,13.55
2019-06-01T05:14:24.147Z,13.68
2019-06-01T05:24:30.169Z,13.88
2019-06-01T05:30:48.402Z,14.00
2019-06-01T05:37:06.345Z,14.13
2019-06-01T05:43:36.818Z,14.24
2019-06-01T05:49:54.924Z,14.38
2019-06-01T05:55:36.935Z,14.53
2019-06-01T06:01:54.986Z,14.65
2019-06-01T06:08:25.393Z,14.80
2019-06-01T06:14:42.945Z,14.96
2019-06-01T06:24:48.983Z,15.17
2019-06-01T06:31:07.066Z,15.31
2019-06-01T06:37:24.716Z,15.46
2019-06-01T06:43:55.152Z,15.60
2019-06-01T06:50:17.905Z,15.78
2019-06-01T06:56:00.276Z,15.93
2019-06-01T07:02:18.818Z,16.10
2019-06-01T07:08:49.211Z,16.26
2019-06-01T07:15:07.721Z,16.45
2019-06-01T07:25:12.984Z,16.72
2019-06-01T07:31:32.497Z,16.91
2019-06-01T07:37:53.191Z,17.10
2019-06-01T07:43:47.696Z,17.25
2019-06-01T07:50:09.735Z,17.44
2019-06-01T07:56:30.350Z,17.65
2019-06-01T08:02:47.917Z,17.87
2019-06-01T08:09:22.044Z,18.15
2019-06-01T08:15:40.660Z,18.44
2019-06-01T08:25:46.555Z,18.78
2019-06-01T08:32:05.039Z,19.00
2019-06-01T08:38:25.676Z,19.24
2019-06-01T08:44:20.227Z,19.48
2019-06-01T08:50:38.804Z,19.65
2019-06-01T08:56:57.039Z,19.95
2019-06-01T09:03:15.171Z,20.15
2019-06-01T09:09:45.373Z,20.26
2019-06-01T09:16:07.181Z,20.42
2019-06-01T09:26:12.586Z,20.76
2019-06-01T09:32:30.571Z,20.81
2019-06-01T09:38:48.394Z,20.79
2019-06-01T09:45:19.074Z,20.83
2019-06-01T09:51:37.810Z,20.92
2019-06-01T09:57:55.734Z,20.97
2019-06-01T10:04:14.027Z,21.10
2019-06-01T10:10:44.419Z,21.37
2019-06-01T10:17:02.159Z,21.57
2019-06-01T10:27:08.191Z,21.79
2019-06-01T10:33:39.044Z,21.89
2019-06-01T10:39:57.467Z,21.97
2019-06-01T10:46:15.714Z,22.05
2019-06-01T10:52:36.313Z,22.14
2019-06-01T10:59:07.892Z,22.37
2019-06-01T11:05:26.112Z,22.46
2019-06-01T11:11:07.922Z,22.63
2019-06-01T11:17:26.374Z,22.73
2019-06-01T11:27:44.012Z,23.17
2019-06-01T11:34:14.679Z,23.43
2019-06-01T11:40:32.284Z,23.42
2019-06-01T11:46:50.000Z,23.43
2019-06-01T11:53:08.198Z,23.45
2019-06-01T11:59:25.767Z,23.49
2019-06-01T12:05:46.074Z,23.62
2019-06-01T12:12:15.587Z,23.66
2019-06-01T12:18:34.203Z,23.78
2019-06-01T12:28:39.539Z,23.84
2019-06-01T12:34:56.488Z,24.15
2019-06-01T12:41:26.134Z,24.48
2019-06-01T12:47:43.927Z,24.52
2019-06-01T12:54:01.837Z,24.55
2019-06-01T12:59:45.173Z,24.66
2019-06-01T13:06:03.066Z,24.76
2019-06-01T13:12:33.322Z,24.91
2019-06-01T13:18:51.757Z,25.02
2019-06-01T13:28:56.453Z,25.36
2019-06-01T13:35:16.821Z,25.53
2019-06-01T13:41:34.189Z,25.71
2019-06-01T13:48:04.398Z,25.87
2019-06-01T13:54:22.390Z,26.07
2019-06-01T14:00:04.424Z,26.26
2019-06-01T14:06:22.453Z,26.39
2019-06-01T14:12:53.486Z,26.58
2019-06-01T14:19:11.281Z,26.68
2019-06-01T14:29:15.973Z,26.80
2019-06-01T14:35:35.652Z,26.88
2019-06-01T14:41:51.537Z,27.16
2019-06-01T14:48:20.827Z,27.46
2019-06-01T14:54:37.552Z,27.73
2019-06-01T15:00:20.667Z,28.01
2019-06-01T15:06:37.690Z,28.30
2019-06-01T15:13:07.893Z,28.63
2019-06-01T15:19:24.658Z,28.83
2019-06-01T15:25:41.578Z,29.08
2019-06-01T15:31:47.846Z,29.15
2019-06-01T15:38:17.105Z,29.28
2019-06-01T15:44:34.127Z,29.55
2019-06-01T15:50:52.108Z,29.99
2019-06-01T15:57:09.014Z,30.20
2019-06-01T16:03:38.642Z,29.89
2019-06-01T16:09:55.493Z,29.51
2019-06-01T16:16:13.019Z,29.54
2019-06-01T16:22:32.417Z,29.37
2019-06-01T16:25:35.908Z,29.31
2019-06-01T16:31:20.537Z,29.11
2019-06-01T16:37:37.962Z,29.34
2019-06-01T16:44:07.487Z,29.32
2019-06-01T16:50:25.073Z,29.37
2019-06-01T16:56:07.525Z,29.46
2019-06-01T17:02:26.095Z,29.66
2019-06-01T17:08:56.661Z,29.80
2019-06-01T17:15:15.638Z,30.04
2019-06-01T17:21:33.734Z,30.00
2019-06-01T17:31:53.384Z,29.58
2019-06-01T17:37:56.753Z,29.08
2019-06-01T17:44:26.143Z,28.63
2019-06-01T17:50:43.947Z,28.25
2019-06-01T17:56:25.716Z,27.90
2019-06-01T18:02:43.494Z,27.72
2019-06-01T18:09:01.948Z,27.42
2019-06-01T18:15:31.618Z,27.16
2019-06-01T18:21:48.906Z,27.03
2019-06-01T18:31:53.481Z,26.63
2019-06-01T18:38:12.796Z,26.40
2019-06-01T18:44:30.020Z,26.06
2019-06-01T18:51:00.414Z,25.73
2019-06-01T18:56:42.791Z,25.42
2019-06-01T19:03:00.807Z,25.26
2019-06-01T19:09:17.624Z,25.01
2019-06-01T19:15:47.227Z,24.78
2019-06-01T19:22:06.300Z,24.54
2019-06-01T19:32:21.076Z,24.13
2019-06-01T19:38:39.569Z,23.94
2019-06-01T19:44:59.298Z,23.62
2019-06-01T19:51:28.706Z,23.39
2019-06-01T19:57:17.966Z,23.21
2019-06-01T20:03:31.902Z,23.04
2019-06-01T20:09:49.122Z,22.78
2019-06-01T20:16:20.226Z,22.57
2019-06-01T20:22:37.932Z,22.21
2019-06-01T20:32:41.194Z,22.01
2019-06-01T20:39:03.877Z,21.82
2019-06-01T20:45:18.769Z,21.55
2019-06-01T20:51:48.405Z,21.44
2019-06-01T20:57:42.849Z,21.14
2019-06-01T21:04:00.402Z,21.17
2019-06-01T21:10:20.416Z,20.89
2019-06-01T21:16:48.964Z,20.76
2019-06-01T21:23:06.531Z,20.52
2019-06-01T21:33:10.320Z,20.44
2019-06-01T21:39:27.762Z,20.21
2019-06-01T21:45:45.441Z,20.17
2019-06-01T21:52:15.786Z,20.02
2019-06-01T21:58:12.404Z,19.83
2019-06-01T22:04:30.923Z,19.75
2019-06-01T22:10:50.173Z,19.56
2019-06-01T22:17:20.351Z,19.49
2019-06-01T22:23:38.697Z,19.29
2019-06-01T22:33:42.314Z,19.10
2019-06-01T22:39:59.976Z,18.94
2019-06-01T22:46:17.435Z,18.89
2019-06-01T22:52:46.635Z,18.80
2019-06-01T22:58:41.289Z,18.69
2019-06-01T23:04:59.991Z,18.62
2019-06-01T23:11:16.741Z,18.40
2019-06-01T23:17:46.027Z,18.49
2019-06-01T23:24:03.765Z,18.39
2019-06-01T23:34:07.971Z,18.22
2019-06-01T23:40:26.549Z,18.03
2019-06-01T23:46:43.643Z,17.94
2019-06-01T23:53:14.125Z,17.93
2019-06-01T23:59:19.679Z,17.84
